sensor_id;sensor_type;location;lat;lon;timestamp;pressure;altitude;pressure_sealevel;temperature;humidity
66681;BME280;73718;51.366;12.350;2023-12-20T00:01:46;99934.94;;;4.63;100.00
66681;BME280;73718;51.366;12.350;2023-12-20T00:04:12;99927.19;;;4.64;100.00
66681;BME280;73718;51.366;12.350;2023-12-20T00:06:37;99924.56;;;4.61;100.00
66681;BME280;73718;51.366;12.350;2023-12-20T00:09:03;99916.78;;;4.58;100.00
66681;BME280;73718;51.366;12.350;2023-12-20T00:11:28;99921.97;;;4.61;100.00
66681;BME280;73718;51.366;12.350;2023-12-20T00:13:53;99908.13;;;4.56;100.00
66681;BME280;73718;51.366;12.350;2023-12-20T00:16:19;99909.03;;;4.60;100.00
66681;BME280;73718;51.366;12.350;2023-12-20T00:18:44;99901.22;;;4.57;100.00
66681;BME280;73718;51.366;12.350;2023-12-20T00:21:10;99907.31;;;4.59;100.00
66681;BME280;73718;51.366;12.350;2023-12-20T00:23:35;99906.44;;;4.58;100.00
66681;BME280;73718;51.366;12.350;2023-12-20T00:26:01;99911.63;;;4.58;100.00
66681;BME280;73718;51.366;12.350;2023-12-20T00:28:26;99902.09;;;4.56;100.00
66681;BME280;73718;51.366;12.350;2023-12-20T00:30:52;99896.91;;;4.56;100.00
66681;BME280;73718;51.366;12.350;2023-12-20T00:33:17;99888.25;;;4.54;100.00
66681;BME280;73718;51.366;12.350;2023-12-20T00:35:42;99886.56;;;4.54;100.00
66681;BME280;73718;51.366;12.350;2023-12-20T00:38:08;99892.56;;;4.52;100.00
66681;BME280;73718;51.366;12.350;2023-12-20T00:40:34;99886.53;;;4.53;100.00
66681;BME280;73718;51.366;12.350;2023-12-20T00:43:00;99885.66;;;4.52;100.00
66681;BME280;73718;51.366;12.350;2023-12-20T00:45:25;99891.69;;;4.51;100.00
66681;BME280;73718;51.366;12.350;2023-12-20T00:47:50;99890.81;;;4.52;100.00
66681;BME280;73718;51.366;12.350;2023-12-20T00:50:16;99889.97;;;4.52;100.00
66681;BME280;73718;51.366;12.350;2023-12-20T00:52:41;99889.09;;;4.51;100.00
66681;BME280;73718;51.366;12.350;2023-12-20T00:55:07;99887.38;;;4.53;100.00
66681;BME280;73718;51.366;12.350;2023-12-20T00:57:33;99887.38;;;4.53;100.00
66681;BME280;73718;51.366;12.350;2023-12-20T00:59:58;99878.75;;;4.53;100.00
66681;BME280;73718;51.366;12.350;2023-12-20T01:02:24;99877.03;;;4.50;100.00
66681;BME280;73718;51.366;12.350;2023-12-20T01:04:49;99886.47;;;4.50;100.00
66681;BME280;73718;51.366;12.350;2023-12-20T01:07:14;99883.94;;;4.51;100.00
66681;BME280;73718;51.366;12.350;2023-12-20T01:09:40;99883.88;;;4.50;100.00
66681;BME280;73718;51.366;12.350;2023-12-20T01:12:05;99885.66;;;4.51;100.00
66681;BME280;73718;51.366;12.350;2023-12-20T01:14:31;99887.38;;;4.52;100.00
66681;BME280;73718;51.366;12.350;2023-12-20T01:16:56;99887.38;;;4.50;100.00
66681;BME280;73718;51.366;12.350;2023-12-20T01:19:22;99883.06;;;4.51;100.00
66681;BME280;73718;51.366;12.350;2023-12-20T01:21:47;99879.63;;;4.52;100.00
66681;BME280;73718;51.366;12.350;2023-12-20T01:24:13;99873.56;;;4.51;100.00
66681;BME280;73718;51.366;12.350;2023-12-20T01:26:38;99877.03;;;4.53;100.00
66681;BME280;73718;51.366;12.350;2023-12-20T01:29:04;99869.28;;;4.53;100.00
66681;BME280;73718;51.366;12.350;2023-12-20T01:31:29;99865.81;;;4.51;100.00
66681;BME280;73718;51.366;12.350;2023-12-20T01:33:54;99858.91;;;4.52;100.00
66681;BME280;73718;51.366;12.350;2023-12-20T01:36:20;99859.75;;;4.49;100.00
66681;BME280;73718;51.366;12.350;2023-12-20T01:38:45;99855.44;;;4.48;100.00
66681;BME280;73718;51.366;12.350;2023-12-20T01:41:11;99851.94;;;4.46;100.00
66681;BME280;73718;51.366;12.350;2023-12-20T01:43:36;99851.09;;;4.47;100.00
66681;BME280;73718;51.366;12.350;2023-12-20T01:46:02;99849.38;;;4.49;100.00
66681;BME280;73718;51.366;12.350;2023-12-20T01:48:29;99848.53;;;4.49;100.00
66681;BME280;73718;51.366;12.350;2023-12-20T01:50:55;99852.84;;;4.50;100.00
66681;BME280;73718;51.366;12.350;2023-12-20T01:53:22;99845.06;;;4.47;100.00
66681;BME280;73718;51.366;12.350;2023-12-20T01:55:50;99845.97;;;4.50;100.00
66681;BME280;73718;51.366;12.350;2023-12-20T01:58:17;99844.25;;;4.51;100.00
66681;BME280;73718;51.366;12.350;2023-12-20T02:00:42;99847.72;;;4.53;100.00
66681;BME280;73718;51.366;12.350;2023-12-20T02:03:08;99851.16;;;4.53;100.00
66681;BME280;73718;51.366;12.350;2023-12-20T02:05:35;99852.00;;;4.51;100.00
66681;BME280;73718;51.366;12.350;2023-12-20T02:08:00;99850.25;;;4.50;100.00
66681;BME280;73718;51.366;12.350;2023-12-20T02:10:27;99852.00;;;4.51;100.00
66681;BME280;73718;51.366;12.350;2023-12-20T02:12:52;99840.81;;;4.50;100.00
66681;BME280;73718;51.366;12.350;2023-12-20T02:15:18;99830.44;;;4.50;100.00
66681;BME280;73718;51.366;12.350;2023-12-20T02:17:44;99833.03;;;4.50;100.00
66681;BME280;73718;51.366;12.350;2023-12-20T02:20:10;99827.88;;;4.52;100.00
66681;BME280;73718;51.366;12.350;2023-12-20T02:22:36;99818.38;;;4.51;100.00
66681;BME280;73718;51.366;12.350;2023-12-20T02:25:01;99820.09;;;4.50;100.00
66681;BME280;73718;51.366;12.350;2023-12-20T02:27:27;99815.78;;;4.51;100.00
66681;BME280;73718;51.366;12.350;2023-12-20T02:29:54;99807.16;;;4.50;100.00
66681;BME280;73718;51.366;12.350;2023-12-20T02:32:20;99820.06;;;4.49;100.00
66681;BME280;73718;51.366;12.350;2023-12-20T02:34:47;99817.47;;;4.49;100.00
66681;BME280;73718;51.366;12.350;2023-12-20T02:37:13;99819.19;;;4.50;100.00
66681;BME280;73718;51.366;12.350;2023-12-20T02:39:38;99817.47;;;4.47;100.00
66681;BME280;73718;51.366;12.350;2023-12-20T02:42:04;99820.94;;;4.49;100.00
66681;BME280;73718;51.366;12.350;2023-12-20T02:44:29;99819.19;;;4.50;100.00
66681;BME280;73718;51.366;12.350;2023-12-20T02:46:54;99831.31;;;4.51;100.00
66681;BME280;73718;51.366;12.350;2023-12-20T02:49:20;99830.44;;;4.50;100.00
66681;BME280;73718;51.366;12.350;2023-12-20T02:51:45;99821.81;;;4.51;100.00
66681;BME280;73718;51.366;12.350;2023-12-20T02:54:11;99817.50;;;4.50;100.00
66681;BME280;73718;51.366;12.350;2023-12-20T02:56:37;99814.03;;;4.50;100.00
66681;BME280;73718;51.366;12.350;2023-12-20T02:59:02;99814.94;;;4.50;100.00
66681;BME280;73718;51.366;12.350;2023-12-20T03:01:30;99804.59;;;4.53;100.00
66681;BME280;73718;51.366;12.350;2023-12-20T03:03:56;99801.13;;;4.51;100.00
66681;BME280;73718;51.366;12.350;2023-12-20T03:06:21;99802.00;;;4.52;100.00
66681;BME280;73718;51.366;12.350;2023-12-20T03:08:46;99799.44;;;4.55;100.00
66681;BME280;73718;51.366;12.350;2023-12-20T03:11:12;99794.22;;;4.52;100.00
66681;BME280;73718;51.366;12.350;2023-12-20T03:13:37;99794.22;;;4.52;100.00
66681;BME280;73718;51.366;12.350;2023-12-20T03:16:12;99794.22;;;4.52;100.00
66681;BME280;73718;51.366;12.350;2023-12-20T03:18:39;99802.91;;;4.55;100.00
66681;BME280;73718;51.366;12.350;2023-12-20T03:21:05;99801.16;;;4.54;100.00
66681;BME280;73718;51.366;12.350;2023-12-20T03:23:31;99795.13;;;4.57;100.00
66681;BME280;73718;51.366;12.350;2023-12-20T03:25:58;99802.03;;;4.55;100.00
66681;BME280;73718;51.366;12.350;2023-12-20T03:28:23;99801.16;;;4.54;100.00
66681;BME280;73718;51.366;12.350;2023-12-20T03:30:49;99785.63;;;4.54;100.00
66681;BME280;73718;51.366;12.350;2023-12-20T03:33:14;99789.09;;;4.55;100.00
66681;BME280;73718;51.366;12.350;2023-12-20T03:35:40;99803.78;;;4.60;100.00
66681;BME280;73718;51.366;12.350;2023-12-20T03:38:05;99801.25;;;4.62;100.00
66681;BME280;73718;51.366;12.350;2023-12-20T03:40:31;99800.34;;;4.60;100.00
66681;BME280;73718;51.366;12.350;2023-12-20T03:42:56;99808.09;;;4.58;100.00
66681;BME280;73718;51.366;12.350;2023-12-20T03:45:21;99802.94;;;4.58;100.00
66681;BME280;73718;51.366;12.350;2023-12-20T03:47:47;99805.53;;;4.60;100.00
66681;BME280;73718;51.366;12.350;2023-12-20T03:50:13;99801.25;;;4.63;100.00
66681;BME280;73718;51.366;12.350;2023-12-20T03:52:38;99793.47;;;4.63;100.00
66681;BME280;73718;51.366;12.350;2023-12-20T03:55:04;99804.69;;;4.64;100.00
66681;BME280;73718;51.366;12.350;2023-12-20T03:57:29;99802.97;;;4.64;100.00
66681;BME280;73718;51.366;12.350;2023-12-20T03:59:55;99803.88;;;4.68;100.00
66681;BME280;73718;51.366;12.350;2023-12-20T04:02:20;99807.31;;;4.66;100.00
66681;BME280;73718;51.366;12.350;2023-12-20T04:04:46;99812.50;;;4.67;100.00
66681;BME280;73718;51.366;12.350;2023-12-20T04:07:11;99814.19;;;4.65;100.00
66681;BME280;73718;51.366;12.350;2023-12-20T04:09:36;99804.69;;;4.62;100.00
66681;BME280;73718;51.366;12.350;2023-12-20T04:12:02;99814.19;;;4.62;100.00
66681;BME280;73718;51.366;12.350;2023-12-20T04:14:28;99794.34;;;4.64;100.00
66681;BME280;73718;51.366;12.350;2023-12-20T04:16:54;99801.25;;;4.63;100.00
66681;BME280;73718;51.366;12.350;2023-12-20T04:19:19;99804.69;;;4.64;100.00
66681;BME280;73718;51.366;12.350;2023-12-20T04:21:44;99815.91;;;4.64;100.00
66681;BME280;73718;51.366;12.350;2023-12-20T04:24:10;99810.75;;;4.66;100.00
66681;BME280;73718;51.366;12.350;2023-12-20T04:26:35;99819.41;;;4.68;100.00
66681;BME280;73718;51.366;12.350;2023-12-20T04:29:01;99812.50;;;4.67;100.00
66681;BME280;73718;51.366;12.350;2023-12-20T04:31:26;99808.19;;;4.68;100.00
66681;BME280;73718;51.366;12.350;2023-12-20T04:33:52;99805.59;;;4.69;100.00
66681;BME280;73718;51.366;12.350;2023-12-20T04:36:17;99810.78;;;4.68;100.00
66681;BME280;73718;51.366;12.350;2023-12-20T04:38:43;99811.66;;;4.70;100.00
66681;BME280;73718;51.366;12.350;2023-12-20T04:41:08;99803.00;;;4.69;100.00
66681;BME280;73718;51.366;12.350;2023-12-20T04:43:33;99801.31;;;4.70;100.00
66681;BME280;73718;51.366;12.350;2023-12-20T04:45:59;99809.06;;;4.71;100.00
66681;BME280;73718;51.366;12.350;2023-12-20T04:48:24;99798.72;;;4.73;100.00
66681;BME280;73718;51.366;12.350;2023-12-20T04:50:50;99805.66;;;4.74;100.00
66681;BME280;73718;51.366;12.350;2023-12-20T04:53:15;99805.63;;;4.72;100.00
66681;BME280;73718;51.366;12.350;2023-12-20T04:55:40;99805.69;;;4.78;100.00
66681;BME280;73718;51.366;12.350;2023-12-20T04:58:06;99807.47;;;4.81;100.00
66681;BME280;73718;51.366;12.350;2023-12-20T05:00:31;99808.31;;;4.81;100.00
66681;BME280;73718;51.366;12.350;2023-12-20T05:02:56;99807.47;;;4.82;100.00
66681;BME280;73718;51.366;12.350;2023-12-20T05:05:22;99826.47;;;4.87;100.00
66681;BME280;73718;51.366;12.350;2023-12-20T05:07:47;99835.97;;;4.87;100.00
66681;BME280;73718;51.366;12.350;2023-12-20T05:10:13;99850.69;;;4.89;100.00
66681;BME280;73718;51.366;12.350;2023-12-20T05:12:38;99840.28;;;4.88;100.00
66681;BME280;73718;51.366;12.350;2023-12-20T05:15:05;99824.78;;;4.89;100.00
66681;BME280;73718;51.366;12.350;2023-12-20T05:17:31;99835.09;;;4.86;100.00
66681;BME280;73718;51.366;12.350;2023-12-20T05:19:56;99840.28;;;4.86;100.00
66681;BME280;73718;51.366;12.350;2023-12-20T05:22:22;99832.50;;;4.86;100.00
66681;BME280;73718;51.366;12.350;2023-12-20T05:24:47;99823.06;;;4.88;100.00
66681;BME280;73718;51.366;12.350;2023-12-20T05:27:12;99836.00;;;4.88;100.00
66681;BME280;73718;51.366;12.350;2023-12-20T05:29:38;99841.19;;;4.92;100.00
66681;BME280;73718;51.366;12.350;2023-12-20T05:32:04;99848.09;;;4.89;100.00
66681;BME280;73718;51.366;12.350;2023-12-20T05:34:30;99842.03;;;4.89;100.00
66681;BME280;73718;51.366;12.350;2023-12-20T05:36:55;99844.59;;;4.86;100.00
66681;BME280;73718;51.366;12.350;2023-12-20T05:39:21;99839.38;;;4.81;100.00
66681;BME280;73718;51.366;12.350;2023-12-20T05:41:47;99844.50;;;4.77;100.00
66681;BME280;73718;51.366;12.350;2023-12-20T05:44:13;99842.78;;;4.77;100.00
66681;BME280;73718;51.366;12.350;2023-12-20T05:46:38;99850.56;;;4.77;100.00
66681;BME280;73718;51.366;12.350;2023-12-20T05:49:05;99861.78;;;4.78;100.00
66681;BME280;73718;51.366;12.350;2023-12-20T05:51:30;99869.53;;;4.78;100.00
66681;BME280;73718;51.366;12.350;2023-12-20T05:53:56;99866.13;;;4.82;100.00
66681;BME280;73718;51.366;12.350;2023-12-20T05:56:21;99868.69;;;4.80;100.00
66681;BME280;73718;51.366;12.350;2023-12-20T05:58:47;99871.28;;;4.80;100.00
66681;BME280;73718;51.366;12.350;2023-12-20T06:01:14;99874.75;;;4.81;100.00
66681;BME280;73718;51.366;12.350;2023-12-20T06:03:43;99875.59;;;4.80;100.00
66681;BME280;73718;51.366;12.350;2023-12-20T06:06:09;99877.34;;;4.82;100.00
66681;BME280;73718;51.366;12.350;2023-12-20T06:08:35;99879.03;;;4.79;100.00
66681;BME280;73718;51.366;12.350;2023-12-20T06:11:01;99861.75;;;4.73;100.00
66681;BME280;73718;51.366;12.350;2023-12-20T06:13:26;99861.66;;;4.67;100.00
66681;BME280;73718;51.366;12.350;2023-12-20T06:15:53;99872.00;;;4.66;100.00
66681;BME280;73718;51.366;12.350;2023-12-20T06:18:19;99871.13;;;4.65;100.00
66681;BME280;73718;51.366;12.350;2023-12-20T06:20:44;99872.84;;;4.64;100.00
66681;BME280;73718;51.366;12.350;2023-12-20T06:23:10;99867.59;;;4.57;100.00
66681;BME280;73718;51.366;12.350;2023-12-20T06:25:35;99858.88;;;4.47;100.00
66681;BME280;73718;51.366;12.350;2023-12-20T06:28:01;99864.78;;;4.38;100.00
66681;BME280;73718;51.366;12.350;2023-12-20T06:30:26;99872.47;;;4.31;100.00
66681;BME280;73718;51.366;12.350;2023-12-20T06:32:53;99875.84;;;4.25;100.00
66681;BME280;73718;51.366;12.350;2023-12-20T06:35:18;99874.84;;;4.15;100.00
66681;BME280;73718;51.366;12.350;2023-12-20T06:37:44;99874.75;;;4.06;100.00
66681;BME280;73718;51.366;12.350;2023-12-20T06:40:10;99876.47;;;4.06;100.00
66681;BME280;73718;51.366;12.350;2023-12-20T06:42:36;99873.03;;;4.05;100.00
66681;BME280;73718;51.366;12.350;2023-12-20T06:45:01;99872.22;;;4.11;100.00
66681;BME280;73718;51.366;12.350;2023-12-20T06:47:27;99865.38;;;4.13;100.00
66681;BME280;73718;51.366;12.350;2023-12-20T06:49:52;99861.00;;;4.10;100.00
66681;BME280;73718;51.366;12.350;2023-12-20T06:52:17;99863.66;;;4.15;100.00
66681;BME280;73718;51.366;12.350;2023-12-20T06:54:43;99864.59;;;4.20;100.00
66681;BME280;73718;51.366;12.350;2023-12-20T06:57:08;99870.69;;;4.25;100.00
66681;BME280;73718;51.366;12.350;2023-12-20T06:59:38;99872.41;;;4.25;100.00
66681;BME280;73718;51.366;12.350;2023-12-20T07:02:05;99864.59;;;4.20;100.00
66681;BME280;73718;51.366;12.350;2023-12-20T07:04:30;99863.69;;;4.18;100.00
66681;BME280;73718;51.366;12.350;2023-12-20T07:06:56;99853.25;;;4.10;100.00
66681;BME280;73718;51.366;12.350;2023-12-20T07:09:23;99855.78;;;4.06;100.00
66681;BME280;73718;51.366;12.350;2023-12-20T07:11:48;99848.03;;;4.07;100.00
66681;BME280;73718;51.366;12.350;2023-12-20T07:14:14;99850.56;;;4.04;100.00
66681;BME280;73718;51.366;12.350;2023-12-20T07:16:39;99849.72;;;4.04;100.00
66681;BME280;73718;51.366;12.350;2023-12-20T07:19:06;99855.75;;;4.03;100.00
66681;BME280;73718;51.366;12.350;2023-12-20T07:21:31;99859.19;;;4.03;100.00
66681;BME280;73718;51.366;12.350;2023-12-20T07:23:57;99856.66;;;4.05;100.00
66681;BME280;73718;51.366;12.350;2023-12-20T07:26:22;99861.00;;;4.10;100.00
66681;BME280;73718;51.366;12.350;2023-12-20T07:28:48;99869.72;;;4.17;100.00
66681;BME280;73718;51.366;12.350;2023-12-20T07:31:15;99880.13;;;4.22;100.00
66681;BME280;73718;51.366;12.350;2023-12-20T07:33:40;99884.47;;;4.24;100.00
66681;BME280;73718;51.366;12.350;2023-12-20T07:36:06;99881.06;;;4.28;100.00
66681;BME280;73718;51.366;12.350;2023-12-20T07:38:32;99885.44;;;4.32;100.00
66681;BME280;73718;51.366;12.350;2023-12-20T07:40:58;99885.47;;;4.35;100.00
66681;BME280;73718;51.366;12.350;2023-12-20T07:43:23;99879.47;;;4.39;100.00
66681;BME280;73718;51.366;12.350;2023-12-20T07:45:49;99879.53;;;4.46;100.00
66681;BME280;73718;51.366;12.350;2023-12-20T07:48:14;99880.44;;;4.49;100.00
66681;BME280;73718;51.366;12.350;2023-12-20T07:50:39;99890.00;;;4.55;100.00
66681;BME280;73718;51.366;12.350;2023-12-20T07:53:05;99887.47;;;4.58;100.00
66681;BME280;73718;51.366;12.350;2023-12-20T07:55:31;99881.41;;;4.59;100.00
66681;BME280;73718;51.366;12.350;2023-12-20T07:57:57;99887.47;;;4.58;100.00
66681;BME280;73718;51.366;12.350;2023-12-20T08:00:23;99890.03;;;4.58;100.00
66681;BME280;73718;51.366;12.350;2023-12-20T08:02:48;99879.66;;;4.56;100.00
66681;BME280;73718;51.366;12.350;2023-12-20T08:05:14;99884.88;;;4.58;100.00
66681;BME280;73718;51.366;12.350;2023-12-20T08:07:39;99877.13;;;4.59;100.00
66681;BME280;73718;51.366;12.350;2023-12-20T08:10:05;99877.97;;;4.60;100.00
66681;BME280;73718;51.366;12.350;2023-12-20T08:12:31;99876.25;;;4.59;100.00
66681;BME280;73718;51.366;12.350;2023-12-20T08:14:56;99870.28;;;4.66;100.00
66681;BME280;73718;51.366;12.350;2023-12-20T08:17:22;99879.00;;;4.74;100.00
66681;BME280;73718;51.366;12.350;2023-12-20T08:19:48;99886.84;;;4.83;100.00
66681;BME280;73718;51.366;12.350;2023-12-20T08:22:20;99882.59;;;4.92;100.00
66681;BME280;73718;51.366;12.350;2023-12-20T08:24:45;99891.28;;;4.95;100.00
66681;BME280;73718;51.366;12.350;2023-12-20T08:27:11;99893.84;;;4.94;100.00
66681;BME280;73718;51.366;12.350;2023-12-20T08:29:36;99899.09;;;5.00;100.00
66681;BME280;73718;51.366;12.350;2023-12-20T08:32:02;99892.22;;;5.02;100.00
66681;BME280;73718;51.366;12.350;2023-12-20T08:34:27;99894.81;;;5.02;100.00
66681;BME280;73718;51.366;12.350;2023-12-20T08:36:53;99895.63;;;4.98;100.00
66681;BME280;73718;51.366;12.350;2023-12-20T08:39:18;99891.31;;;5.00;100.00
66681;BME280;73718;51.366;12.350;2023-12-20T08:41:44;99883.56;;;5.01;100.00
66681;BME280;73718;51.366;12.350;2023-12-20T08:44:09;99888.69;;;4.94;100.00
66681;BME280;73718;51.366;12.350;2023-12-20T08:46:35;99888.63;;;4.87;100.00
66681;BME280;73718;51.366;12.350;2023-12-20T08:49:02;99889.41;;;4.80;100.00
66681;BME280;73718;51.366;12.350;2023-12-20T08:51:28;99888.53;;;4.78;100.00
66681;BME280;73718;51.366;12.350;2023-12-20T08:53:54;99891.91;;;4.71;100.00
66681;BME280;73718;51.366;12.350;2023-12-20T08:56:20;99897.91;;;4.69;100.00
66681;BME280;73718;51.366;12.350;2023-12-20T08:58:46;99880.66;;;4.68;100.00
66681;BME280;73718;51.366;12.350;2023-12-20T09:01:12;99883.25;;;4.69;100.00
66681;BME280;73718;51.366;12.350;2023-12-20T09:03:37;99882.44;;;4.73;100.00
66681;BME280;73718;51.366;12.350;2023-12-20T09:06:03;99883.34;;;4.80;100.00
66681;BME280;73718;51.366;12.350;2023-12-20T09:08:28;99871.28;;;4.80;100.00
66681;BME280;73718;51.366;12.350;2023-12-20T09:10:54;99891.16;;;4.83;100.00
66681;BME280;73718;51.366;12.350;2023-12-20T09:13:19;99882.56;;;4.85;100.00
66681;BME280;73718;51.366;12.350;2023-12-20T09:15:45;99883.47;;;4.91;100.00
66681;BME280;73718;51.366;12.350;2023-12-20T09:18:11;99861.91;;;4.90;100.00
66681;BME280;73718;51.366;12.350;2023-12-20T09:20:36;99874.88;;;4.93;100.00
66681;BME280;73718;51.366;12.350;2023-12-20T09:23:02;99873.22;;;5.01;100.00
66681;BME280;73718;51.366;12.350;2023-12-20T09:25:27;99849.97;;;5.10;100.00
66681;BME280;73718;51.366;12.350;2023-12-20T09:27:54;99871.66;;;5.22;100.00
66681;BME280;73718;51.366;12.350;2023-12-20T09:30:19;99887.28;;;5.29;100.00
66681;BME280;73718;51.366;12.350;2023-12-20T09:32:45;99870.91;;;5.36;100.00
66681;BME280;73718;51.366;12.350;2023-12-20T09:35:11;99869.16;;;5.31;100.00
66681;BME280;73718;51.366;12.350;2023-12-20T09:37:36;99876.94;;;5.32;100.00
66681;BME280;73718;51.366;12.350;2023-12-20T09:40:02;99878.72;;;5.38;100.00
66681;BME280;73718;51.366;12.350;2023-12-20T09:42:47;99866.72;;;5.51;100.00
66681;BME280;73718;51.366;12.350;2023-12-20T09:45:15;99867.63;;;5.57;100.00
66681;BME280;73718;51.366;12.350;2023-12-20T09:47:43;99854.69;;;5.59;100.00
66681;BME280;73718;51.366;12.350;2023-12-20T09:50:09;99848.66;;;5.61;100.00
66681;BME280;73718;51.366;12.350;2023-12-20T09:52:36;99851.25;;;5.63;100.00
66681;BME280;73718;51.366;12.350;2023-12-20T09:55:03;99855.63;;;5.69;100.00
66681;BME280;73718;51.366;12.350;2023-12-20T09:57:32;99832.31;;;5.79;100.00
66681;BME280;73718;51.366;12.350;2023-12-20T09:59:57;99839.34;;;5.93;100.00
66681;BME280;73718;51.366;12.350;2023-12-20T10:02:24;99845.44;;;6.05;100.00
66681;BME280;73718;51.366;12.350;2023-12-20T10:04:52;99846.38;;;6.17;100.00
66681;BME280;73718;51.366;12.350;2023-12-20T10:07:17;99849.00;;;6.24;100.00
66681;BME280;73718;51.366;12.350;2023-12-20T10:09:44;99858.47;;;6.13;100.00
66681;BME280;73718;51.366;12.350;2023-12-20T10:12:09;99848.94;;;6.14;100.00
66681;BME280;73718;51.366;12.350;2023-12-20T10:14:35;99842.94;;;6.19;100.00
66681;BME280;73718;51.366;12.350;2023-12-20T10:17:04;99847.28;;;6.28;100.00
66681;BME280;73718;51.366;12.350;2023-12-20T10:19:30;99836.06;;;6.30;100.00
66681;BME280;73718;51.366;12.350;2023-12-20T10:21:58;99822.19;;;6.24;100.00
66681;BME280;73718;51.366;12.350;2023-12-20T10:24:24;99818.69;;;6.11;100.00
66681;BME280;73718;51.366;12.350;2023-12-20T10:27:04;99810.03;;;6.09;100.00
66681;BME280;73718;51.366;12.350;2023-12-20T10:29:34;99823.88;;;6.14;100.00
66681;BME280;73718;51.366;12.350;2023-12-20T10:34:45;99797.19;;;6.49;100.00
66681;BME280;73718;51.366;12.350;2023-12-20T10:37:11;99809.25;;;6.48;100.00
66681;BME280;73718;51.366;12.350;2023-12-20T10:39:37;99796.28;;;6.44;100.00
66681;BME280;73718;51.366;12.350;2023-12-20T10:42:03;99792.84;;;6.51;100.00
66681;BME280;73718;51.366;12.350;2023-12-20T10:44:29;99801.53;;;6.53;100.00
66681;BME280;73718;51.366;12.350;2023-12-20T10:46:54;99800.63;;;6.55;100.00
66681;BME280;73718;51.366;12.350;2023-12-20T10:49:24;99777.28;;;6.54;100.00
66681;BME280;73718;51.366;12.350;2023-12-20T10:51:54;99776.41;;;6.55;100.00
66681;BME280;73718;51.366;12.350;2023-12-20T10:54:19;99773.84;;;6.56;100.00
66681;BME280;73718;51.366;12.350;2023-12-20T10:56:45;99787.69;;;6.66;100.00
66681;BME280;73718;51.366;12.350;2023-12-20T10:59:13;99772.97;;;6.70;100.00
66681;BME280;73718;51.366;12.350;2023-12-20T11:01:42;99766.06;;;6.76;100.00
66681;BME280;73718;51.366;12.350;2023-12-20T11:04:10;99771.25;;;6.76;100.00
66681;BME280;73718;51.366;12.350;2023-12-20T11:06:56;99765.19;;;6.83;100.00
66681;BME280;73718;51.366;12.350;2023-12-20T11:09:35;99760.88;;;6.87;100.00
66681;BME280;73718;51.366;12.350;2023-12-20T11:12:25;99772.09;;;6.89;100.00
66681;BME280;73718;51.366;12.350;2023-12-20T11:14:54;99767.78;;;6.91;100.00
66681;BME280;73718;51.366;12.350;2023-12-20T11:17:28;99758.25;;;6.89;100.00
66681;BME280;73718;51.366;12.350;2023-12-20T11:22:20;99766.06;;;6.87;100.00
66681;BME280;73718;51.366;12.350;2023-12-20T11:24:47;99753.91;;;6.86;100.00
66681;BME280;73718;51.366;12.350;2023-12-20T11:27:13;99762.59;;;6.90;100.00
66681;BME280;73718;51.366;12.350;2023-12-20T11:29:39;99746.16;;;6.91;100.00
66681;BME280;73718;51.366;12.350;2023-12-20T11:34:50;99756.53;;;6.83;100.00
66681;BME280;73718;51.366;12.350;2023-12-20T11:37:16;99732.31;;;6.79;100.00
66681;BME280;73718;51.366;12.350;2023-12-20T11:39:43;99737.50;;;6.69;100.00
66681;BME280;73718;51.366;12.350;2023-12-20T11:42:10;99741.78;;;6.64;100.00
66681;BME280;73718;51.366;12.350;2023-12-20T11:44:36;99721.03;;;6.64;100.00
66681;BME280;73718;51.366;12.350;2023-12-20T11:47:02;99715.00;;;6.72;100.00
66681;BME280;73718;51.366;12.350;2023-12-20T11:49:27;99740.06;;;6.67;100.00
66681;BME280;73718;51.366;12.350;2023-12-20T11:51:56;99708.94;;;6.66;100.00
66681;BME280;73718;51.366;12.350;2023-12-20T11:54:22;99694.22;;;6.65;100.00
66681;BME280;73718;51.366;12.350;2023-12-20T11:56:47;99693.34;;;6.72;100.00
66681;BME280;73718;51.366;12.350;2023-12-20T11:59:13;99684.69;;;6.76;100.00
66681;BME280;73718;51.366;12.350;2023-12-20T12:01:39;99676.91;;;6.83;100.00
66681;BME280;73718;51.366;12.350;2023-12-20T12:04:05;99681.22;;;6.84;100.00
66681;BME280;73718;51.366;12.350;2023-12-20T12:06:31;99661.31;;;6.85;100.00
66681;BME280;73718;51.366;12.350;2023-12-20T12:08:56;99683.81;;;6.91;100.00
66681;BME280;73718;51.366;12.350;2023-12-20T12:11:22;99663.03;;;6.78;100.00
66681;BME280;73718;51.366;12.350;2023-12-20T12:13:48;99654.41;;;6.76;100.00
66681;BME280;73718;51.366;12.350;2023-12-20T12:16:17;99653.53;;;6.76;100.00
66681;BME280;73718;51.366;12.350;2023-12-20T12:18:44;99667.38;;;6.75;100.00
66681;BME280;73718;51.366;12.350;2023-12-20T12:21:10;99662.19;;;6.73;100.00
66681;BME280;73718;51.366;12.350;2023-12-20T12:23:35;99666.53;;;6.76;100.00
66681;BME280;73718;51.366;12.350;2023-12-20T12:26:04;99651.78;;;6.82;100.00
66681;BME280;73718;51.366;12.350;2023-12-20T12:28:29;99648.31;;;6.93;100.00
66681;BME280;73718;51.366;12.350;2023-12-20T12:31:00;99647.44;;;6.94;100.00
66681;BME280;73718;51.366;12.350;2023-12-20T12:33:26;99655.25;;;6.95;100.00
66681;BME280;73718;51.366;12.350;2023-12-20T12:35:52;99685.53;;;6.99;100.00
66681;BME280;73718;51.366;12.350;2023-12-20T12:38:20;99647.44;;;6.95;100.00
66681;BME280;73718;51.366;12.350;2023-12-20T12:40:46;99638.78;;;6.92;100.00
66681;BME280;73718;51.366;12.350;2023-12-20T12:43:12;99643.97;;;6.92;100.00
66681;BME280;73718;51.366;12.350;2023-12-20T12:45:38;99648.31;;;6.93;100.00
66681;BME280;73718;51.366;12.350;2023-12-20T12:48:04;99637.06;;;6.91;100.00
66681;BME280;73718;51.366;12.350;2023-12-20T12:50:30;99643.13;;;6.88;100.00
66681;BME280;73718;51.366;12.350;2023-12-20T12:52:56;99637.94;;;6.91;100.00